Time;durP1;ratioP1;P1;durP2;ratioP2;P2;SDS_P1;SDS_P2;PMS_P1;PMS_P2;Temp;Humidity;BMP_temperature;BMP_pressure;BME280_temperature;BME280_humidity;BME280_pressure;Samples;Min_cycle;Max_cycle;Signal;HPM_P1;HPM_P2
2022/11/03 00:02:10;;;;;;;6.38;2.83;;;;;;;15.83;50.30;101374.53;5063721;28;20045;-68
2022/11/03 00:04:42;;;;;;;8.10;2.80;;;;;;;15.82;50.33;101367.38;5052439;28;20048;-68
2022/11/03 00:07:09;;;;;;;10.55;2.65;;;;;;;15.84;50.30;101368.13;5051820;28;20041;-68
2022/11/03 00:09:35;;;;;;;11.50;2.85;;;;;;;15.86;50.55;101363.44;5052156;28;20067;-68
2022/11/03 00:12:02;;;;;;;7.57;2.10;;;;;;;15.86;50.53;101358.00;5061565;28;20040;-68
2022/11/03 00:14:30;;;;;;;8.38;2.20;;;;;;;15.88;50.26;101359.59;5072109;28;20094;-68
2022/11/03 00:16:56;;;;;;;9.48;2.90;;;;;;;15.91;50.48;101355.78;5071889;28;20086;-68
2022/11/03 00:19:23;;;;;;;11.75;3.28;;;;;;;15.93;50.24;101361.91;5072173;28;20049;-69
2022/11/03 00:21:49;;;;;;;9.18;2.70;;;;;;;15.96;50.44;101347.25;5064044;28;20037;-68
2022/11/03 00:24:17;;;;;;;12.00;3.05;;;;;;;15.96;50.36;101348.13;5052164;28;20142;-69
2022/11/03 00:26:43;;;;;;;14.23;3.25;;;;;;;15.95;50.23;101343.69;5051760;28;20048;-69
2022/11/03 00:29:12;;;;;;;8.93;2.35;;;;;;;15.94;50.33;101341.09;5051812;28;20041;-68
2022/11/03 00:31:40;;;;;;;11.02;3.03;;;;;;;15.96;50.57;101336.41;5057305;28;20040;-69
2022/11/03 00:34:11;;;;;;;7.90;2.42;;;;;;;15.97;50.30;101330.88;5071307;28;20563;-69
2022/11/03 00:36:40;;;;;;;14.10;2.85;;;;;;;15.97;50.67;101330.00;5071594;28;20486;-69
2022/11/03 00:39:07;;;;;;;10.77;2.78;;;;;;;15.97;50.64;101330.00;5053795;28;20066;-69
2022/11/03 00:41:34;;;;;;;11.95;2.92;;;;;;;15.96;50.58;101329.16;5066478;28;20037;-69
2022/11/03 00:44:01;;;;;;;13.45;2.42;;;;;;;15.95;50.51;101323.88;5051533;28;20033;-69
2022/11/03 00:46:29;;;;;;;6.30;2.45;;;;;;;15.94;50.28;101314.00;5050392;28;20107;-69
2022/11/03 00:48:55;;;;;;;9.75;2.42;;;;;;;15.94;50.76;101311.31;5051111;28;20071;-69
2022/11/03 00:51:25;;;;;;;10.50;2.90;;;;;;;15.93;50.46;101313.16;5054479;28;20093;-69
2022/11/03 00:53:52;;;;;;;8.05;2.50;;;;;;;15.94;50.85;101300.47;5071412;28;20040;-70
2022/11/03 00:56:22;;;;;;;9.27;2.55;;;;;;;15.94;50.84;101301.34;5071130;28;20045;-70
2022/11/03 00:58:50;;;;;;;11.70;2.67;;;;;;;15.95;50.38;101294.91;5071173;28;20037;-70
2022/11/03 01:01:19;;;;;;;13.07;3.40;;;;;;;15.95;50.63;101294.06;5053052;28;20069;-69
2022/11/03 01:06:56;;;;;;;10.38;2.97;;;;;;;15.96;50.60;101293.94;5071281;28;20047;-68
2022/11/03 01:09:44;;;;;;;8.23;2.35;;;;;;;15.94;50.54;101287.78;5071169;28;20431;-69
2022/11/03 01:12:16;;;;;;;10.68;3.00;;;;;;;15.95;50.52;101291.34;5070583;28;20113;-69
2022/11/03 01:14:51;;;;;;;10.07;3.13;;;;;;;15.91;50.47;101284.47;5069647;28;20089;-69
2022/11/03 01:17:23;;;;;;;12.77;2.80;;;;;;;15.84;50.55;101273.31;5070934;28;20044;-69
2022/11/03 01:19:50;;;;;;;10.55;2.97;;;;;;;15.81;50.65;101271.75;5071162;28;20298;-68
2022/11/03 01:22:18;;;;;;;12.80;2.75;;;;;;;15.77;50.86;101273.00;5057885;28;20115;-68
2022/11/03 01:24:46;;;;;;;11.40;2.95;;;;;;;15.74;50.90;101262.44;5051238;28;20556;-68
2022/11/03 01:27:17;;;;;;;11.30;2.42;;;;;;;15.73;50.88;101265.28;5050916;28;20045;-69
2022/11/03 01:29:43;;;;;;;6.15;2.25;;;;;;;15.69;50.97;101261.97;5033313;28;20102;-68
2022/11/03 01:32:11;;;;;;;7.40;2.47;;;;;;;15.67;50.83;101260.38;5061982;28;20040;-67
2022/11/03 01:34:39;;;;;;;9.82;2.75;;;;;;;15.63;50.99;101251.66;5071239;28;20045;-67
2022/11/03 01:37:06;;;;;;;12.65;3.28;;;;;;;15.61;51.12;101244.66;5070957;28;20165;-68
2022/11/03 01:39:33;;;;;;;8.77;2.83;;;;;;;15.56;51.01;101236.88;5070897;28;20059;-68
2022/11/03 01:41:59;;;;;;;12.95;3.13;;;;;;;15.53;51.05;101240.69;5052589;28;20696;-67
2022/11/03 01:44:35;;;;;;;7.93;2.85;;;;;;;15.53;51.20;101242.56;5057725;28;20041;-68
2022/11/03 01:47:10;;;;;;;11.82;2.83;;;;;;;15.53;51.19;101232.59;5050836;28;20041;-68
2022/11/03 01:49:45;;;;;;;10.68;2.63;;;;;;;15.54;51.46;101225.31;5050891;28;20044;-67
2022/11/03 01:52:35;;;;;;;14.32;3.00;;;;;;;15.55;51.80;101224.31;5061635;28;20433;-67
2022/11/03 01:55:12;;;;;;;8.73;3.05;;;;;;;15.59;51.48;101220.41;5070958;28;20383;-69
2022/11/03 01:57:52;;;;;;;10.48;2.97;;;;;;;15.62;51.62;101214.75;5069294;28;20044;-68
2022/11/03 02:00:20;;;;;;;7.65;2.13;;;;;;;15.64;51.29;101220.88;5071213;28;20033;-68
2022/11/03 02:02:46;;;;;;;8.82;2.85;;;;;;;15.62;51.71;101208.47;5058443;28;20498;-68
2022/11/03 02:05:20;;;;;;;9.85;2.65;;;;;;;15.60;51.38;101199.59;5054813;28;20052;-67
2022/11/03 02:07:54;;;;;;;10.40;2.78;;;;;;;15.62;51.48;101203.91;5054564;28;20095;-67
2022/11/03 02:10:22;;;;;;;8.48;2.60;;;;;;;15.63;51.39;101202.06;5054480;28;20141;-68
2022/11/03 02:12:49;;;;;;;9.40;3.33;;;;;;;15.59;51.62;101201.44;5069756;28;20482;-68
2022/11/03 02:15:23;;;;;;;9.73;2.72;;;;;;;15.56;51.69;101196.25;5074252;28;20091;-68
2022/11/03 02:17:52;;;;;;;10.32;3.10;;;;;;;15.54;51.46;101190.97;5074100;28;20052;-67
2022/11/03 02:20:31;;;;;;;9.55;2.78;;;;;;;15.54;51.51;101193.69;5073942;28;20086;-68
2022/11/03 02:23:19;;;;;;;11.45;2.95;;;;;;;15.52;51.69;101182.13;5057521;28;20364;-68
2022/11/03 02:25:56;;;;;;;7.30;2.25;;;;;;;15.50;51.62;101180.56;5054330;28;20053;-68
2022/11/03 02:28:29;;;;;;;8.07;2.75;;;;;;;15.49;51.53;101173.41;5054088;28;20082;-68
2022/11/03 02:31:07;;;;;;;8.65;2.25;;;;;;;15.50;51.81;101177.84;5054044;28;20029;-68
2022/11/03 02:33:36;;;;;;;9.23;2.50;;;;;;;15.49;51.74;101174.28;5054071;28;20033;-68
2022/11/03 02:36:17;;;;;;;6.18;2.53;;;;;;;15.49;51.54;101168.00;5054117;28;20029;-68
2022/11/03 02:38:52;;;;;;;10.27;2.60;;;;;;;15.47;51.76;101165.44;5054014;28;20507;-68
2022/11/03 02:41:20;;;;;;;10.50;2.80;;;;;;;15.47;51.75;101164.56;5056384;28;20098;-68
2022/11/03 02:43:48;;;;;;;8.50;3.17;;;;;;;15.45;51.70;101163.84;5065411;28;20036;-68
2022/11/03 02:46:17;;;;;;;9.80;2.55;;;;;;;15.44;52.16;101162.13;5036099;28;20052;-68
2022/11/03 02:48:44;;;;;;;10.25;2.70;;;;;;;15.43;52.27;101142.34;5053700;28;20045;-69
2022/11/03 02:51:10;;;;;;;7.40;2.58;;;;;;;15.44;52.06;101148.59;5058343;28;20048;-69
2022/11/03 02:53:44;;;;;;;9.30;2.42;;;;;;;15.45;52.13;101147.63;5055810;28;20036;-69
2022/11/03 02:56:18;;;;;;;9.25;2.90;;;;;;;15.46;52.25;101141.22;5073746;28;20037;-69
2022/11/03 02:59:01;;;;;;;8.50;2.75;;;;;;;15.51;52.04;101141.66;5073416;28;20091;-69
2022/11/03 03:01:28;;;;;;;5.53;2.30;;;;;;;15.53;51.91;101132.41;5069679;28;20049;-69
2022/11/03 03:04:05;;;;;;;11.60;2.45;;;;;;;15.55;52.34;101126.88;5035810;28;20037;-69
2022/11/03 03:07:03;;;;;;;9.45;2.70;;;;;;;15.55;52.20;101125.03;5053462;28;20407;-68
2022/11/03 03:09:36;;;;;;;9.75;2.53;;;;;;;15.57;52.04;101119.47;5053198;28;20412;-69
2022/11/03 03:12:05;;;;;;;17.80;3.03;;;;;;;15.56;52.00;101120.47;5060572;28;20040;-68
2022/11/03 03:14:37;;;;;;;8.98;2.33;;;;;;;15.58;52.24;101107.69;5073303;28;20044;-68
2022/11/03 03:17:12;;;;;;;9.57;2.08;;;;;;;15.58;52.40;101116.66;5073009;28;20041;-68
2022/11/03 03:19:47;;;;;;;;;;;;;;;15.56;52.17;101118.63;5073716;28;20513;-69
2022/11/03 03:22:18;;;;;;;7.50;2.17;;;;;;;15.60;52.11;101112.97;5063607;28;20337;-68
2022/11/03 03:24:57;;;;;;;6.97;2.47;;;;;;;15.56;51.99;101107.78;5053302;28;20399;-68
2022/11/03 03:27:28;;;;;;;9.68;2.85;;;;;;;15.60;52.14;101102.13;5052773;28;20057;-68
2022/11/03 03:30:00;;;;;;;8.98;2.42;;;;;;;15.62;52.10;101094.78;5035143;28;20049;-68
2022/11/03 03:32:32;;;;;;;8.77;2.40;;;;;;;15.64;52.27;101092.78;5045814;28;20048;-68
2022/11/03 03:35:00;;;;;;;13.45;3.05;;;;;;;15.62;52.41;101092.91;5071954;28;20041;-68
2022/11/03 03:37:30;;;;;;;10.00;3.08;;;;;;;15.62;52.56;101097.47;5055137;28;20051;-68
2022/11/03 03:39:59;;;;;;;12.07;2.65;;;;;;;15.62;52.37;101095.63;5072717;28;20109;-68
2022/11/03 03:42:28;;;;;;;10.18;2.42;;;;;;;15.62;52.47;101087.50;5044268;28;20095;-68
2022/11/03 03:44:56;;;;;;;11.32;2.75;;;;;;;15.63;52.85;101081.09;5052551;28;20589;-68
2022/11/03 03:47:28;;;;;;;9.40;2.25;;;;;;;15.66;52.48;101075.41;5052778;28;20104;-68
2022/11/03 03:49:55;;;;;;;11.55;2.38;;;;;;;15.69;52.63;101067.00;5052641;28;20049;-68
2022/11/03 03:52:22;;;;;;;12.70;2.97;;;;;;;15.70;52.66;101074.13;5061627;28;20045;-68
2022/11/03 03:54:54;;;;;;;11.65;2.78;;;;;;;15.73;52.53;101073.00;5072360;28;20040;-68
2022/11/03 03:57:23;;;;;;;10.02;2.17;;;;;;;15.76;52.85;101076.31;5072289;28;20052;-68
2022/11/03 03:59:49;;;;;;;8.55;2.33;;;;;;;15.79;53.06;101062.50;5072456;28;20048;-68
2022/11/03 04:02:16;;;;;;;7.65;2.60;;;;;;;15.82;52.81;101064.06;5063197;28;20048;-68
2022/11/03 04:04:47;;;;;;;8.25;2.20;;;;;;;15.83;52.64;101054.94;5052528;28;20068;-68
2022/11/03 04:09:58;;;;;;;7.97;3.13;;;;;;;15.84;52.54;101046.69;5052135;28;20503;-68
2022/11/03 04:23:29;;;;;;;8.00;2.47;;;;;;;15.95;52.80;101031.31;5053519;28;20045;-69
2022/11/03 04:25:58;;;;;;;13.88;2.70;;;;;;;15.93;52.57;101031.44;5052113;28;20091;-69
2022/11/03 04:28:26;;;;;;;8.80;2.83;;;;;;;15.92;52.78;101032.44;5051940;28;20090;-68
2022/11/03 04:30:58;;;;;;;7.75;2.38;;;;;;;15.93;52.57;101031.44;5052203;28;20045;-69
2022/11/03 04:33:25;;;;;;;12.48;2.90;;;;;;;15.94;52.68;101032.31;5068704;28;20079;-69
2022/11/03 04:35:54;;;;;;;8.52;2.33;;;;;;;15.95;52.87;101031.31;5072511;28;20553;-69
2022/11/03 04:38:22;;;;;;;7.18;2.47;;;;;;;15.96;52.59;101039.31;5072470;28;20048;-68
2022/11/03 04:40:54;;;;;;;13.00;2.42;;;;;;;15.97;52.64;101023.91;5071378;28;20040;-68
2022/11/03 04:43:28;;;;;;;10.90;2.50;;;;;;;15.98;52.94;101022.91;5055051;28;20116;-69
2022/11/03 04:45:55;;;;;;;10.93;2.38;;;;;;;16.00;53.09;101021.78;5051429;28;20049;-69
2022/11/03 04:48:22;;;;;;;5.20;2.30;;;;;;;16.02;52.74;101017.06;5051444;28;20041;-68
2022/11/03 04:50:53;;;;;;;9.32;2.30;;;;;;;16.03;52.88;101018.78;5051391;28;20545;-69
2022/11/03 04:53:21;;;;;;;8.80;2.70;;;;;;;16.03;52.91;101002.53;5066597;28;20036;-69
2022/11/03 04:55:53;;;;;;;6.90;2.08;;;;;;;16.04;53.04;101001.53;5071563;28;20040;-69
2022/11/03 04:58:25;;;;;;;11.48;2.92;;;;;;;16.04;52.79;100996.13;5071492;28;20552;-69
2022/11/03 05:00:58;;;;;;;10.05;2.63;;;;;;;16.04;52.91;100997.97;5071187;28;20041;-69
2022/11/03 05:03:28;;;;;;;10.82;2.67;;;;;;;16.04;53.25;101001.53;5036870;28;20029;-68
2022/11/03 05:05:56;;;;;;;7.38;2.60;;;;;;;16.07;53.04;101003.09;5051444;28;20388;-69
2022/11/03 05:08:23;;;;;;;12.15;2.50;;;;;;;16.08;52.94;100996.69;5051102;28;20495;-69
2022/11/03 05:10:50;;;;;;;10.02;2.05;;;;;;;16.08;53.04;100988.56;5051060;28;20067;-68
2022/11/03 05:13:23;;;;;;;6.45;2.35;;;;;;;16.08;53.33;100981.28;5065612;28;20145;-68
2022/11/03 05:16:02;;;;;;;11.98;2.40;;;;;;;16.11;53.38;100981.00;5071647;28;20445;-69
2022/11/03 05:18:32;;;;;;;11.25;2.45;;;;;;;16.13;53.22;100979.00;5070855;28;20161;-69
2022/11/03 05:21:01;;;;;;;10.85;2.70;;;;;;;16.14;53.21;100978.00;5053092;28;20102;-69
2022/11/03 05:23:35;;;;;;;8.63;2.63;;;;;;;16.17;53.19;100971.44;5054061;28;20048;-69
2022/11/03 05:26:05;;;;;;;14.05;2.40;;;;;;;16.17;53.26;100971.44;5050821;28;20041;-69
2022/11/03 05:28:38;;;;;;;11.48;2.53;;;;;;;16.17;53.12;100963.31;5050786;28;20041;-69
2022/11/03 05:31:20;;;;;;;13.48;3.85;;;;;;;16.14;53.39;100963.63;5050283;28;20507;-69
2022/11/03 05:33:48;;;;;;;7.57;2.63;;;;;;;16.14;53.35;100969.88;5068747;28;20041;-69
2022/11/03 05:36:21;;;;;;;7.68;2.83;;;;;;;16.13;53.46;100953.78;5075070;28;20060;-69
2022/11/03 05:38:48;;;;;;;4.75;2.15;;;;;;;16.14;53.46;100947.34;5074815;28;20094;-69
2022/11/03 05:41:21;;;;;;;12.85;2.97;;;;;;;16.12;53.50;100942.06;5074647;28;20044;-69
2022/11/03 05:44:01;;;;;;;9.00;2.67;;;;;;;16.10;53.34;100935.09;5056421;28;20049;-69
2022/11/03 05:46:31;;;;;;;9.45;2.90;;;;;;;16.08;53.67;100934.38;5054889;28;20060;-68
2022/11/03 05:49:01;;;;;;;7.85;2.53;;;;;;;16.07;53.42;100924.53;5054418;28;20052;-68
2022/11/03 05:51:40;;;;;;;6.63;2.20;;;;;;;16.09;53.21;100922.53;5054807;28;20061;-69
2022/11/03 05:54:34;;;;;;;8.55;2.30;;;;;;;16.04;53.71;100922.13;5053997;28;20395;-69
2022/11/03 05:57:00;;;;;;;11.88;3.10;;;;;;;16.04;53.43;100922.13;5055084;28;20037;-69
2022/11/03 05:59:28;;;;;;;6.18;2.53;;;;;;;16.03;53.76;100923.97;5050020;28;20414;-68
2022/11/03 06:01:58;;;;;;;7.22;2.38;;;;;;;16.05;53.83;100918.41;5036782;28;20029;-69
2022/11/03 06:04:31;;;;;;;9.13;2.20;;;;;;;16.05;53.52;100911.13;5054422;28;20568;-68
2022/11/03 06:07:02;;;;;;;10.40;2.65;;;;;;;16.06;53.90;100910.13;5053714;28;20049;-69
2022/11/03 06:09:32;;;;;;;7.03;2.22;;;;;;;16.06;53.68;100906.56;5054320;28;20048;-68
2022/11/03 06:12:04;;;;;;;6.60;2.60;;;;;;;16.04;53.91;100904.00;5051586;28;20107;-68
2022/11/03 06:14:35;;;;;;;7.43;3.15;;;;;;;16.04;53.57;100897.72;5033471;28;20034;-68
2022/11/03 06:17:09;;;;;;;9.40;2.53;;;;;;;16.01;53.78;100896.16;5038705;28;20033;-68
2022/11/03 06:19:46;;;;;;;10.13;2.72;;;;;;;15.98;53.56;100896.44;5054272;28;20445;-68
2022/11/03 06:22:19;;;;;;;8.63;2.15;;;;;;;15.96;54.05;100890.31;5051838;28;20088;-68
2022/11/03 06:24:53;;;;;;;10.82;2.83;;;;;;;15.96;53.89;100898.44;5052112;28;20037;-68
2022/11/03 06:27:25;;;;;;;9.23;2.53;;;;;;;15.95;53.59;100891.31;5052252;28;20572;-68
2022/11/03 06:29:56;;;;;;;6.95;2.42;;;;;;;15.91;53.66;100884.47;5053483;28;20075;-68
2022/11/03 06:32:23;;;;;;;7.97;2.72;;;;;;;15.89;53.95;100879.19;5046173;28;20041;-69
2022/11/03 06:34:57;;;;;;;8.88;2.40;;;;;;;15.87;53.84;100881.19;5052841;28;20041;-68
2022/11/03 06:37:31;;;;;;;13.15;2.97;;;;;;;15.88;54.04;100882.91;5052660;28;20041;-68
2022/11/03 06:40:26;;;;;;;6.95;2.55;;;;;;;15.88;54.30;100880.19;5052686;28;20049;-68
2022/11/03 06:42:55;;;;;;;6.75;2.50;;;;;;;15.88;53.83;100872.06;5051992;28;20435;-68
2022/11/03 06:45:25;;;;;;;8.38;2.70;;;;;;;15.85;54.29;100874.22;5053980;28;20053;-68
2022/11/03 06:47:53;;;;;;;12.52;3.53;;;;;;;15.85;54.27;100869.66;5041923;28;20046;-68
2022/11/03 06:50:31;;;;;;;9.50;2.78;;;;;;;15.86;54.56;100871.38;5040014;28;20103;-68
2022/11/03 06:53:00;;;;;;;6.88;2.55;;;;;;;15.86;54.12;100870.50;5034579;28;20491;-67
2022/11/03 06:55:35;;;;;;;5.75;2.25;;;;;;;15.88;54.43;100877.50;5034018;28;20053;-67
2022/11/03 06:58:11;;;;;;;10.57;3.35;;;;;;;15.91;54.33;100867.38;5033772;28;20072;-67
2022/11/03 07:00:41;;;;;;;6.78;2.53;;;;;;;15.93;54.66;100877.06;5060560;28;20052;-68
2022/11/03 07:03:26;;;;;;;7.22;2.42;;;;;;;15.96;54.26;100870.50;5073375;28;20044;-68
2022/11/03 07:06:00;;;;;;;12.25;3.25;;;;;;;15.97;54.51;100864.94;5073658;28;20063;-68
2022/11/03 07:08:34;;;;;;;10.35;3.08;;;;;;;15.98;54.51;100863.94;5073859;28;20074;-67
2022/11/03 07:11:15;;;;;;;10.43;3.37;;;;;;;15.99;54.48;100854.81;5073254;28;20052;-68
2022/11/03 07:13:43;;;;;;;8.18;2.78;;;;;;;16.00;54.35;100856.53;5073292;28;20044;-68
2022/11/03 07:16:28;;;;;;;10.15;2.60;;;;;;;16.01;54.43;100860.09;5073177;28;20056;-67
2022/11/03 07:18:58;;;;;;;10.07;2.72;;;;;;;16.03;54.55;100863.50;5073168;28;20037;-68
2022/11/03 07:22:19;;;;;;;8.18;2.95;;;;;;;16.05;54.74;100859.66;5073189;28;20090;-67
2022/11/03 07:24:53;;;;;;;9.68;2.67;;;;;;;16.12;54.64;100860.78;4952176;29;20055;-69
2022/11/03 07:27:24;;;;;;;9.38;3.35;;;;;;;16.13;54.67;100864.38;4952490;29;20039;-68
2022/11/03 07:29:56;;;;;;;6.95;2.40;;;;;;;16.15;54.64;100862.38;5018292;28;20115;-70
2022/11/03 07:32:29;;;;;;;7.15;2.20;;;;;;;16.17;54.57;100846.81;5035211;28;20047;-68
2022/11/03 07:35:03;;;;;;;10.90;3.10;;;;;;;16.19;54.71;100853.81;5064287;28;20036;-69
2022/11/03 07:37:30;;;;;;;8.90;2.83;;;;;;;16.23;54.63;100846.22;5072741;28;20094;-68
2022/11/03 07:39:58;;;;;;;8.02;2.33;;;;;;;16.28;54.70;100841.22;5048399;28;20520;-68
2022/11/03 07:42:26;;;;;;;8.52;2.88;;;;;;;16.29;54.62;100834.81;5072017;28;20056;-68
2022/11/03 07:44:58;;;;;;;11.27;3.15;;;;;;;16.33;54.54;100829.94;5073520;28;20399;-68
2022/11/03 07:47:26;;;;;;;9.90;2.65;;;;;;;16.37;55.01;100831.41;5072369;28;20052;-68
2022/11/03 07:49:54;;;;;;;10.52;2.50;;;;;;;16.39;54.86;100824.84;5072201;28;20048;-68
2022/11/03 07:52:25;;;;;;;8.77;2.17;;;;;;;16.42;55.09;100819.13;5072739;28;20044;-68
2022/11/03 07:54:55;;;;;;;9.60;2.72;;;;;;;16.45;54.49;100816.13;5072450;28;20033;-68
2022/11/03 07:57:26;;;;;;;8.98;2.40;;;;;;;16.49;54.80;100812.09;5071551;28;20449;-68
2022/11/03 08:00:03;;;;;;;7.30;2.33;;;;;;;16.51;54.98;100818.22;5071620;28;20048;-68
2022/11/03 08:02:46;;;;;;;8.73;2.45;;;;;;;16.57;54.61;100807.78;5071899;28;20052;-68
2022/11/03 08:05:14;;;;;;;7.80;2.20;;;;;;;16.61;54.46;100818.19;5071893;28;20044;-68
2022/11/03 08:07:41;;;;;;;9.30;2.50;;;;;;;16.66;54.36;100829.47;5071955;28;20533;-68
2022/11/03 08:10:08;;;;;;;6.40;2.10;;;;;;;16.70;54.96;100824.63;5071841;28;20076;-67
2022/11/03 08:12:35;;;;;;;10.45;2.45;;;;;;;16.71;54.43;100827.19;5071751;28;20051;-68
2022/11/03 08:15:06;;;;;;;8.88;3.15;;;;;;;16.72;54.47;100826.19;5072039;28;20071;-68
2022/11/03 08:17:32;;;;;;;6.68;2.50;;;;;;;16.73;54.25;100817.03;5071534;28;20487;-67
2022/11/03 08:19:59;;;;;;;7.68;2.08;;;;;;;16.75;54.50;100819.59;5071716;28;20036;-68
2022/11/03 08:22:25;;;;;;;10.27;2.60;;;;;;;16.77;54.52;100807.59;5053799;28;20552;-67
2022/11/03 08:24:56;;;;;;;9.65;3.25;;;;;;;16.79;54.69;100805.59;5071736;28;20556;-68
2022/11/03 08:27:22;;;;;;;9.05;2.80;;;;;;;16.82;54.28;100804.44;5071695;28;20063;-68
2022/11/03 08:29:49;;;;;;;8.70;2.25;;;;;;;16.83;54.58;100795.28;5071588;28;20110;-68
2022/11/03 08:32:16;;;;;;;7.78;2.38;;;;;;;16.84;54.57;100776.16;5071331;28;20052;-67
2022/11/03 08:34:43;;;;;;;9.63;2.70;;;;;;;16.87;54.32;100776.84;5072009;28;20106;-67
2022/11/03 08:37:09;;;;;;;9.25;2.80;;;;;;;16.90;54.39;100771.97;5054019;28;20086;-68
2022/11/03 08:39:36;;;;;;;9.10;2.58;;;;;;;16.93;54.49;100768.97;5071583;28;20048;-68
2022/11/03 08:42:03;;;;;;;6.80;2.63;;;;;;;16.93;54.65;100763.53;5053439;28;20124;-68
2022/11/03 08:44:31;;;;;;;12.05;2.63;;;;;;;16.94;54.38;100757.09;5071567;28;20106;-68
2022/11/03 08:46:57;;;;;;;11.88;2.60;;;;;;;16.95;54.31;100741.69;5071229;28;20053;-68
2022/11/03 08:49:24;;;;;;;11.30;2.80;;;;;;;16.96;54.42;100740.69;5071293;28;20037;-68
2022/11/03 08:51:50;;;;;;;9.38;2.72;;;;;;;16.97;54.53;100724.25;5071317;28;20045;-68
2022/11/03 08:54:20;;;;;;;8.18;2.33;;;;;;;16.97;54.21;100720.69;5071558;28;20033;-69
2022/11/03 08:56:48;;;;;;;7.80;2.90;;;;;;;17.01;54.13;100722.09;5071005;28;20118;-68
2022/11/03 08:59:16;;;;;;;10.95;3.22;;;;;;;17.05;54.33;100720.75;5066299;28;20558;-69
2022/11/03 09:01:43;;;;;;;9.80;3.15;;;;;;;17.09;54.43;100714.03;5051081;28;20045;-69
2022/11/03 09:04:14;;;;;;;10.18;3.05;;;;;;;17.11;54.19;100696.63;5051544;28;20133;-69
2022/11/03 09:06:41;;;;;;;8.10;3.10;;;;;;;17.14;54.20;100690.88;5050579;28;20037;-69
2022/11/03 09:09:07;;;;;;;8.38;3.13;;;;;;;17.17;53.85;100678.84;5050754;28;20041;-69
2022/11/03 09:11:54;;;;;;;9.70;2.70;;;;;;;17.22;54.10;100660.25;5047447;28;20115;-68
2022/11/03 09:14:24;;;;;;;9.73;2.72;;;;;;;17.25;54.11;100662.66;5050324;28;20040;-69
2022/11/03 09:16:50;;;;;;;7.00;2.40;;;;;;;17.28;53.77;100666.91;5050870;28;20048;-68
2022/11/03 09:19:17;;;;;;;6.13;2.53;;;;;;;17.30;54.10;100668.47;5051066;28;20072;-68
2022/11/03 09:21:43;;;;;;;9.48;3.40;;;;;;;17.32;53.96;100655.59;5044908;28;20030;-68
2022/11/03 09:24:11;;;;;;;9.48;2.83;;;;;;;17.37;54.03;100652.41;5044439;28;20098;-68
2022/11/03 09:26:38;;;;;;;6.60;2.47;;;;;;;17.41;54.00;100649.22;5050792;28;20056;-68
2022/11/03 09:29:04;;;;;;;12.23;3.00;;;;;;;17.48;53.92;100620.41;5044913;28;20029;-68
2022/11/03 09:31:31;;;;;;;6.55;2.67;;;;;;;17.55;53.63;100622.50;5032298;28;20462;-67
2022/11/03 09:33:58;;;;;;;6.85;2.45;;;;;;;17.60;53.96;100622.88;5031366;28;20057;-68
2022/11/03 09:36:31;;;;;;;12.27;2.42;;;;;;;17.64;53.89;100619.66;5032032;28;20050;-68
2022/11/03 09:38:58;;;;;;;6.93;2.83;;;;;;;17.69;53.43;100609.22;5030704;28;20041;-68
2022/11/03 09:41:24;;;;;;;15.02;3.38;;;;;;;17.72;53.73;100595.31;5030811;28;20442;-68
2022/11/03 09:44:17;;;;;;;7.00;2.53;;;;;;;17.76;53.31;100590.41;5030235;28;20558;-68
2022/11/03 09:46:43;;;;;;;;;;;;;;;17.79;53.07;100579.22;5030069;28;20053;-68
2022/11/03 09:49:13;;;;;;;6.50;2.22;;;;;;;17.86;52.96;100576.72;5029544;28;19925;-68
2022/11/03 09:51:41;;;;;;;10.40;2.45;;;;;;;17.88;53.29;100575.56;5029725;28;20049;-68
2022/11/03 09:54:17;;;;;;;7.97;3.10;;;;;;;17.90;53.22;100572.66;5029511;28;20099;-68
2022/11/03 09:56:45;;;;;;;;;;;;;;;17.94;53.21;100574.91;5029661;28;20133;-68
2022/11/03 09:59:20;;;;;;;6.35;2.65;;;;;;;17.98;53.02;100568.13;5036006;28;19966;-68
2022/11/03 10:01:49;;;;;;;10.45;3.13;;;;;;;18.00;52.97;100573.41;5050242;28;20064;-67
2022/11/03 10:04:26;;;;;;;7.75;2.58;;;;;;;17.99;53.14;100567.09;5053833;28;20044;-69
2022/11/03 10:06:54;;;;;;;6.82;2.50;;;;;;;18.01;53.03;100564.22;5043358;28;20060;-68
2022/11/03 10:09:23;;;;;;;6.47;2.20;;;;;;;18.04;52.65;100550.31;5060718;28;20094;-69
2022/11/03 10:11:51;;;;;;;8.45;2.33;;;;;;;18.05;52.86;100546.59;5069475;28;20067;-69
2022/11/03 10:14:21;;;;;;;7.50;2.33;;;;;;;18.07;52.59;100548.13;5069472;28;20113;-70
2022/11/03 10:16:52;;;;;;;5.38;2.20;;;;;;;18.08;52.79;100536.22;5070242;28;20102;-69
2022/11/03 10:19:19;;;;;;;6.80;2.60;;;;;;;18.09;52.44;100537.09;5070375;28;20371;-70
2022/11/03 10:21:46;;;;;;;8.48;2.53;;;;;;;18.10;52.17;100527.91;5069949;28;20372;-69
2022/11/03 10:24:15;;;;;;;9.93;2.40;;;;;;;18.11;52.46;100532.34;5073752;28;20040;-69
2022/11/03 10:26:56;;;;;;;7.68;2.13;;;;;;;18.12;52.12;100525.88;5072943;28;20102;-69
2022/11/03 10:29:27;;;;;;;7.55;2.45;;;;;;;18.14;52.26;100523.00;5073927;28;20041;-70
2022/11/03 10:31:57;;;;;;;9.20;2.58;;;;;;;18.16;51.93;100510.94;5072253;28;20040;-69
2022/11/03 10:34:33;;;;;;;9.88;2.30;;;;;;;18.17;51.99;100509.06;5053989;28;20045;-69
2022/11/03 10:37:24;;;;;;;6.10;2.20;;;;;;;18.18;51.77;100500.75;5053368;28;20053;-68
2022/11/03 10:39:53;;;;;;;8.50;2.25;;;;;;;18.22;51.63;100493.97;5053587;28;20091;-69
2022/11/03 10:42:21;;;;;;;6.82;2.50;;;;;;;18.23;51.63;100486.66;5056294;28;20032;-69
2022/11/03 10:44:52;;;;;;;7.38;2.58;;;;;;;18.21;51.29;100478.69;5055660;28;20048;-69
2022/11/03 10:47:24;;;;;;;7.88;2.47;;;;;;;18.20;51.56;100471.53;5071822;28;20056;-69
2022/11/03 10:49:53;;;;;;;7.72;2.60;;;;;;;18.20;51.49;100459.81;5073335;28;20491;-69
2022/11/03 10:52:23;;;;;;;9.63;2.70;;;;;;;18.17;51.00;100452.84;5055636;28;20075;-69
2022/11/03 10:54:55;;;;;;;9.90;2.60;;;;;;;18.16;51.47;100459.31;5074282;28;20063;-69
2022/11/03 10:57:22;;;;;;;7.65;2.15;;;;;;;18.16;51.22;100447.59;5067001;28;20574;-68
2022/11/03 10:59:52;;;;;;;6.85;2.38;;;;;;;18.14;50.95;100445.03;5068405;28;20037;-69
2022/11/03 11:02:21;;;;;;;4.10;1.83;;;;;;;18.15;51.00;100446.72;5069818;28;20452;-69
2022/11/03 11:04:54;;;;;;;8.05;2.22;;;;;;;18.15;50.80;100444.00;5072087;28;20062;-69
2022/11/03 11:07:25;;;;;;;7.22;2.13;;;;;;;18.18;51.04;100438.25;5073428;28;20036;-70
2022/11/03 11:09:53;;;;;;;6.97;2.08;;;;;;;18.20;50.90;100441.66;5059633;28;20040;-70
2022/11/03 11:12:24;;;;;;;6.93;2.28;;;;;;;18.23;50.80;100444.03;5054341;28;20056;-69
2022/11/03 11:14:59;;;;;;;7.43;2.28;;;;;;;18.27;50.96;100430.94;5063159;28;20048;-69
2022/11/03 11:17:37;;;;;;;8.05;2.03;;;;;;;18.32;50.70;100425.84;5036963;28;20434;-69
2022/11/03 11:20:20;;;;;;;5.50;2.13;;;;;;;18.36;50.62;100435.38;5052994;28;20087;-69
2022/11/03 11:22:48;;;;;;;7.22;2.13;;;;;;;18.39;50.76;100422.28;5057272;28;20051;-69
2022/11/03 11:25:17;;;;;;;9.13;2.40;;;;;;;18.41;50.46;100412.09;5054723;28;20037;-69
2022/11/03 11:27:43;;;;;;;5.65;2.03;;;;;;;18.44;50.16;100416.34;5054839;28;20045;-70
2022/11/03 11:30:19;;;;;;;6.18;2.08;;;;;;;18.48;50.05;100430.44;5071761;28;20040;-69
2022/11/03 11:32:48;;;;;;;6.65;2.20;;;;;;;18.54;50.13;100413.44;5052504;28;20041;-69
2022/11/03 11:35:23;;;;;;;8.80;2.70;;;;;;;18.59;50.32;100416.53;5054054;28;20044;-69
2022/11/03 11:37:50;;;;;;;8.13;2.45;;;;;;;18.64;49.94;100403.31;5072156;28;20118;-69
2022/11/03 11:40:23;;;;;;;6.97;2.42;;;;;;;18.69;50.14;100390.03;5072208;28;20392;-68
2022/11/03 11:43:05;;;;;;;6.13;2.42;;;;;;;18.79;50.01;100390.69;5054586;28;20032;-69
2022/11/03 11:46:11;;;;;;;9.85;1.98;;;;;;;18.91;49.98;100369.41;5072574;28;20151;-69
2022/11/03 11:48:37;;;;;;;7.57;2.55;;;;;;;18.99;49.32;100364.78;5052795;28;20446;-69
2022/11/03 11:51:09;;;;;;;4.72;1.67;;;;;;;19.04;49.30;100361.53;5052464;28;20037;-69
2022/11/03 11:53:41;;;;;;;6.10;2.00;;;;;;;19.08;49.31;100352.00;5052467;28;20037;-69
2022/11/03 11:56:10;;;;;;;6.10;1.90;;;;;;;19.11;49.11;100350.78;5034547;28;20041;-69
2022/11/03 11:58:41;;;;;;;5.07;2.03;;;;;;;19.14;49.28;100336.84;5071175;28;20043;-69
2022/11/03 12:01:34;;;;;;;8.18;2.10;;;;;;;19.14;48.73;100339.56;5072418;28;20044;-69